Time;durP1;ratioP1;P1;durP2;ratioP2;P2;SDS_P1;SDS_P2;PMS_P1;PMS_P2;Temp;Humidity;BMP_temperature;BMP_pressure;BME280_temperature;BME280_humidity;BME280_pressure;Samples;Min_cycle;Max_cycle;Signal;HPM_P1;HPM_P2
2021/08/04 00:02:01;;;;;;;;;7.00;6.00;;;;;;;;5022960;27;45399;-75
2021/08/04 00:04:26;;;;;;;;;5.75;5.50;;;;;;;;5026201;28;45418;-75
2021/08/04 00:06:51;;;;;;;;;6.00;4.00;;;;;;;;5031129;27;46867;-75
2021/08/04 00:09:16;;;;;;;;;6.00;6.00;;;;;;;;5024108;27;46084;-74
2021/08/04 00:11:42;;;;;;;;;6.75;4.75;;;;;;;;5023574;27;45394;-76
2021/08/04 00:14:07;;;;;;;;;5.25;5.25;;;;;;;;5029110;27;45868;-77
2021/08/04 00:16:32;;;;;;;;;4.50;4.50;;;;;;;;5029383;28;45417;-75
2021/08/04 00:18:58;;;;;;;;;7.50;6.00;;;;;;;;5030423;27;45466;-75
2021/08/04 00:21:23;;;;;;;;;7.00;5.00;;;;;;;;5028073;27;45383;-76
2021/08/04 00:23:49;;;;;;;;;5.50;5.50;;;;;;;;5027287;27;45504;-75
2021/08/04 00:26:14;;;;;;;;;6.25;4.00;;;;;;;;5012187;27;45481;-75
2021/08/04 00:28:39;;;;;;;;;4.33;4.33;;;;;;;;5025630;28;46203;-75
2021/08/04 00:31:04;;;;;;;;;7.00;5.67;;;;;;;;5028659;27;45545;-75
2021/08/04 00:33:30;;;;;;;;;6.00;5.33;;;;;;;;5029178;27;45354;-74
2021/08/04 00:35:55;;;;;;;;;6.75;5.75;;;;;;;;5026371;27;45637;-75
2021/08/04 00:38:20;;;;;;;;;6.33;6.33;;;;;;;;5025231;27;45371;-76
2021/08/04 00:40:46;;;;;;;;;8.00;5.75;;;;;;;;5032329;28;45498;-76
2021/08/04 00:43:11;;;;;;;;;7.75;4.50;;;;;;;;5025166;27;46333;-74
2021/08/04 00:45:36;;;;;;;;;5.00;5.00;;;;;;;;5028094;27;45316;-75
2021/08/04 00:48:03;;;;;;;;;7.75;5.00;;;;;;;;5030203;27;46205;-75
2021/08/04 00:50:28;;;;;;;;;6.50;6.50;;;;;;;;5012977;27;45978;-74
2021/08/04 00:52:53;;;;;;;;;6.00;6.00;;;;;;;;5036335;28;45535;-74
2021/08/04 00:55:18;;;;;;;;;8.00;5.00;;;;;;;;5018521;27;45398;-74
2021/08/04 00:57:44;;;;;;;;;8.00;6.25;;;;;;;;5030119;27;46344;-76
2021/08/04 01:00:11;;;;;;;;;7.00;7.00;;;;;;;;5035790;28;45464;-76
2021/08/04 01:02:48;;;;;;;;;7.25;6.50;;;;;;;;5034402;28;45565;-74
2021/08/04 01:05:26;;;;;;;;;7.25;5.00;;;;;;;;5032768;27;45653;-74
2021/08/04 01:08:00;;;;;;;;;6.00;5.00;;;;;;;;5029764;28;46273;-75
2021/08/04 01:10:28;;;;;;;;;6.00;4.00;;;;;;;;5029148;27;45681;-76
2021/08/04 01:12:53;;;;;;;;;6.50;5.00;;;;;;;;5012250;27;45516;-75
2021/08/04 01:15:18;;;;;;;;;7.00;5.33;;;;;;;;5032018;27;45605;-74
2021/08/04 01:17:49;;;;;;;;;5.50;5.25;;;;;;;;5032632;27;46454;-75
2021/08/04 01:20:20;;;;;;;;;6.25;5.50;;;;;;;;5034583;27;45961;-75
2021/08/04 01:23:01;;;;;;;;;7.25;7.25;;;;;;;;5028170;28;45543;-76
2021/08/04 01:25:37;;;;;;;;;6.50;4.75;;;;;;;;5031940;27;45441;-75
2021/08/04 01:28:21;;;;;;;;;8.00;5.00;;;;;;;;5031616;27;45287;-75
2021/08/04 01:30:48;;;;;;;;;5.00;5.00;;;;;;;;5011633;27;46124;-76
2021/08/04 01:33:14;;;;;;;;;7.25;4.75;;;;;;;;5033952;27;45421;-75
2021/08/04 01:35:40;;;;;;;;;10.50;7.25;;;;;;;;5030569;27;45572;-75
2021/08/04 01:38:05;;;;;;;;;8.00;7.50;;;;;;;;5032038;27;46152;-75
2021/08/04 01:40:31;;;;;;;;;6.25;5.25;;;;;;;;5034741;28;45807;-74
2021/08/04 01:42:57;;;;;;;;;7.75;6.00;;;;;;;;5028484;27;45610;-75
2021/08/04 01:45:23;;;;;;;;;6.00;6.00;;;;;;;;5030310;27;45463;-75
2021/08/04 01:47:48;;;;;;;;;5.67;5.67;;;;;;;;5028189;27;46358;-73
2021/08/04 01:50:14;;;;;;;;;5.75;5.25;;;;;;;;5095930;27;45485;-74
2021/08/04 01:52:39;;;;;;;;;7.00;5.50;;;;;;;;5030735;28;45572;-75
2021/08/04 01:55:07;;;;;;;;;6.67;5.33;;;;;;;;5032655;27;45623;-75
2021/08/04 01:57:32;;;;;;;;;5.50;5.50;;;;;;;;5031822;27;45443;-75
2021/08/04 01:59:57;;;;;;;;;7.67;6.67;;;;;;;;5045367;28;45449;-75
2021/08/04 02:02:23;;;;;;;;;10.33;5.00;;;;;;;;5048092;28;45675;-75
2021/08/04 02:04:49;;;;;;;;;8.50;8.00;;;;;;;;5031465;28;45557;-75
2021/08/04 02:07:26;;;;;;;;;9.00;6.25;;;;;;;;5027291;27;46040;-74
2021/08/04 02:09:52;;;;;;;;;5.25;5.25;;;;;;;;5022650;27;45589;-75
2021/08/04 02:12:18;;;;;;;;;7.50;6.00;;;;;;;;5013960;27;45406;-76
2021/08/04 02:14:50;;;;;;;;;6.00;5.75;;;;;;;;5024254;28;45579;-75
2021/08/04 02:17:26;;;;;;;;;5.00;5.00;;;;;;;;5092395;27;47638;-75
2021/08/04 02:19:55;;;;;;;;;9.00;6.50;;;;;;;;5033744;28;45792;-75
2021/08/04 02:22:23;;;;;;;;;9.00;5.75;;;;;;;;5030603;27;45424;-75
2021/08/04 02:24:53;;;;;;;;;7.00;6.00;;;;;;;;5027919;28;45346;-75
2021/08/04 02:27:18;;;;;;;;;8.00;5.00;;;;;;;;5033926;27;45349;-75
2021/08/04 02:29:44;;;;;;;;;7.00;5.25;;;;;;;;5025481;27;45465;-75
2021/08/04 02:32:09;;;;;;;;;6.00;6.00;;;;;;;;5033313;28;45401;-75
2021/08/04 02:34:35;;;;;;;;;7.00;6.00;;;;;;;;5031840;28;45501;-75
2021/08/04 02:37:00;;;;;;;;;5.75;5.75;;;;;;;;5027239;27;46289;-77
2021/08/04 02:39:26;;;;;;;;;8.25;6.25;;;;;;;;5032515;27;45386;-75
2021/08/04 02:41:51;;;;;;;;;5.75;5.75;;;;;;;;5014120;27;45623;-75
2021/08/04 02:44:17;;;;;;;;;5.75;5.75;;;;;;;;5034560;27;45366;-76
2021/08/04 02:46:46;;;;;;;;;5.25;5.00;;;;;;;;5026587;28;47287;-74
2021/08/04 02:49:13;;;;;;;;;9.00;6.00;;;;;;;;5028239;27;45955;-75
2021/08/04 02:51:39;;;;;;;;;5.00;5.00;;;;;;;;5031227;27;45492;-74
2021/08/04 02:54:05;;;;;;;;;7.75;6.00;;;;;;;;5023733;27;45517;-74
2021/08/04 02:56:30;;;;;;;;;9.33;7.00;;;;;;;;5044054;28;47323;-75
2021/08/04 02:58:55;;;;;;;;;5.00;5.00;;;;;;;;5035980;28;45533;-75
2021/08/04 03:01:20;;;;;;;;;8.33;5.00;;;;;;;;5029140;27;45495;-75
2021/08/04 03:03:46;;;;;;;;;5.50;5.00;;;;;;;;5095713;27;45616;-74
2021/08/04 03:06:11;;;;;;;;;7.00;6.00;;;;;;;;5039205;27;45416;-77
2021/08/04 03:08:37;;;;;;;;;5.67;5.67;;;;;;;;5032310;27;45317;-76
2021/08/04 03:11:03;;;;;;;;;9.00;5.00;;;;;;;;5045576;28;45414;-75
2021/08/04 03:13:28;;;;;;;;;5.75;5.75;;;;;;;;5033403;27;45476;-75
2021/08/04 03:15:54;;;;;;;;;5.00;5.00;;;;;;;;5036046;27;46173;-74
2021/08/04 03:18:19;;;;;;;;;5.00;4.50;;;;;;;;5030825;27;45572;-74
2021/08/04 03:20:44;;;;;;;;;6.00;5.00;;;;;;;;5034041;27;45517;-75
2021/08/04 03:23:09;;;;;;;;;17.00;7.00;;;;;;;;5017410;28;45661;-76
2021/08/04 03:25:34;;;;;;;;;6.00;5.50;;;;;;;;5032108;28;45459;-75
2021/08/04 03:28:00;;;;;;;;;7.00;5.33;;;;;;;;5029479;27;45774;-75
2021/08/04 03:30:25;;;;;;;;;6.00;4.33;;;;;;;;5032471;27;45424;-74
2021/08/04 03:32:50;;;;;;;;;8.33;6.00;;;;;;;;5036626;27;45668;-75
2021/08/04 03:35:15;;;;;;;;;6.00;6.00;;;;;;;;5017768;27;47472;-75
2021/08/04 03:37:41;;;;;;;;;5.25;4.75;;;;;;;;5032843;28;45466;-75
2021/08/04 03:40:07;;;;;;;;;6.75;5.00;;;;;;;;5034084;27;45614;-75
2021/08/04 03:42:32;;;;;;;;;6.00;5.00;;;;;;;;5036027;27;45586;-75
2021/08/04 03:44:57;;;;;;;;;7.00;6.00;;;;;;;;5011775;27;47546;-75
2021/08/04 03:47:23;;;;;;;;;6.00;5.00;;;;;;;;5018555;27;45717;-75
2021/08/04 03:49:48;;;;;;;;;6.33;5.33;;;;;;;;5029337;28;45492;-74
2021/08/04 03:52:13;;;;;;;;;7.00;4.33;;;;;;;;5033709;27;45447;-74
2021/08/04 03:54:38;;;;;;;;;7.33;6.00;;;;;;;;5032170;27;45562;-75
2021/08/04 03:57:03;;;;;;;;;6.50;5.00;;;;;;;;5032368;27;45325;-74
2021/08/04 03:59:29;;;;;;;;;5.00;5.00;;;;;;;;5031735;27;45431;-75
2021/08/04 04:01:54;;;;;;;;;7.67;5.33;;;;;;;;5027409;28;45563;-76
2021/08/04 04:04:19;;;;;;;;;7.33;4.67;;;;;;;;5031064;27;45600;-74
2021/08/04 04:06:44;;;;;;;;;4.67;4.00;;;;;;;;5020516;27;45413;-75
2021/08/04 04:09:09;;;;;;;;;7.00;6.00;;;;;;;;5025552;27;45511;-75
2021/08/04 04:11:36;;;;;;;;;5.00;5.00;;;;;;;;5034123;27;45381;-76
2021/08/04 04:14:01;;;;;;;;;6.75;6.00;;;;;;;;5032912;28;45522;-74
2021/08/04 04:16:26;;;;;;;;;4.33;4.33;;;;;;;;5015793;27;45390;-75
2021/08/04 04:18:51;;;;;;;;;6.00;5.00;;;;;;;;5028634;27;45383;-74
2021/08/04 04:21:17;;;;;;;;;7.00;7.00;;;;;;;;5032583;27;45693;-74
2021/08/04 04:23:42;;;;;;;;;9.00;4.67;;;;;;;;5092612;27;48074;-75
2021/08/04 04:26:07;;;;;;;;;5.00;5.00;;;;;;;;5035323;27;45388;-76
2021/08/04 04:28:32;;;;;;;;;5.50;5.50;;;;;;;;5033816;28;45501;-75
2021/08/04 04:30:58;;;;;;;;;7.00;5.00;;;;;;;;5030745;27;45704;-74
2021/08/04 04:33:23;;;;;;;;;7.00;5.00;;;;;;;;5033504;27;46118;-77
2021/08/04 04:35:49;;;;;;;;;6.50;5.75;;;;;;;;5044815;28;45400;-75
2021/08/04 04:38:14;;;;;;;;;6.50;5.50;;;;;;;;5035970;27;45465;-75
2021/08/04 04:40:40;;;;;;;;;7.00;5.25;;;;;;;;5032826;28;45451;-75
2021/08/04 04:43:05;;;;;;;;;6.67;4.00;;;;;;;;5029896;27;46283;-75
2021/08/04 04:45:30;;;;;;;;;6.00;5.67;;;;;;;;5015240;27;45891;-74
2021/08/04 04:47:55;;;;;;;;;5.00;4.33;;;;;;;;5036244;27;45600;-76
2021/08/04 04:50:21;;;;;;;;;7.67;5.00;;;;;;;;5030544;27;45574;-76
2021/08/04 04:52:46;;;;;;;;;6.75;5.00;;;;;;;;5027224;28;45509;-75
2021/08/04 04:55:12;;;;;;;;;7.00;5.67;;;;;;;;5033558;27;45393;-74
2021/08/04 04:57:37;;;;;;;;;4.25;3.00;;;;;;;;5014572;27;45376;-76
2021/08/04 05:00:04;;;;;;;;;6.67;4.33;;;;;;;;5034334;27;45396;-75
2021/08/04 05:02:29;;;;;;;;;4.25;4.25;;;;;;;;5029033;27;45714;-75
2021/08/04 05:04:56;;;;;;;;;5.00;5.00;;;;;;;;5016864;27;45805;-75
2021/08/04 05:07:21;;;;;;;;;4.75;4.00;;;;;;;;5032014;27;45566;-74
2021/08/04 05:09:46;;;;;;;;;4.00;4.00;;;;;;;;5030865;27;45575;-75
2021/08/04 05:12:11;;;;;;;;;8.33;4.00;;;;;;;;5031345;27;46156;-74
2021/08/04 05:14:40;;;;;;;;;5.33;5.00;;;;;;;;5048328;28;45688;-76
2021/08/04 05:17:05;;;;;;;;;8.25;5.75;;;;;;;;5030662;27;45585;-75
2021/08/04 05:19:31;;;;;;;;;6.00;4.00;;;;;;;;5034761;28;45880;-75
2021/08/04 05:21:56;;;;;;;;;5.00;5.00;;;;;;;;5029769;27;45485;-75
2021/08/04 05:24:21;;;;;;;;;5.00;4.67;;;;;;;;5032987;28;45742;-79
2021/08/04 05:26:46;;;;;;;;;7.00;5.00;;;;;;;;5030425;27;45580;-76
2021/08/04 05:29:11;;;;;;;;;7.33;5.00;;;;;;;;5031674;27;45446;-77
2021/08/04 05:31:36;;;;;;;;;5.00;3.00;;;;;;;;5031256;28;45401;-76
2021/08/04 05:34:02;;;;;;;;;5.33;5.33;;;;;;;;5033748;27;45330;-76
2021/08/04 05:36:27;;;;;;;;;6.00;4.00;;;;;;;;5033481;27;45382;-77
2021/08/04 05:38:53;;;;;;;;;6.33;5.00;;;;;;;;5017093;27;45628;-77
2021/08/04 05:41:19;;;;;;;;;7.00;7.00;;;;;;;;5043200;27;45545;-78
2021/08/04 05:43:44;;;;;;;;;4.67;3.00;;;;;;;;5036448;27;45515;-78
2021/08/04 05:46:09;;;;;;;;;5.67;5.67;;;;;;;;5015922;27;45763;-78
2021/08/04 05:48:34;;;;;;;;;7.00;5.00;;;;;;;;5028324;27;45447;-79
2021/08/04 05:50:59;;;;;;;;;5.33;4.00;;;;;;;;5031855;27;45661;-81
2021/08/04 05:53:25;;;;;;;;;8.67;7.00;;;;;;;;5034648;27;45408;-80
2021/08/04 05:55:50;;;;;;;;;6.00;5.00;;;;;;;;5035317;28;45482;-81
2021/08/04 05:58:17;;;;;;;;;10.33;6.33;;;;;;;;5028936;27;45617;-81
2021/08/04 06:00:42;;;;;;;;;6.25;6.00;;;;;;;;5024301;27;46689;-80
2021/08/04 06:03:07;;;;;;;;;5.00;5.00;;;;;;;;5026255;27;45655;-81
2021/08/04 06:05:32;;;;;;;;;6.67;5.67;;;;;;;;5029995;27;45445;-81
2021/08/04 06:07:58;;;;;;;;;5.00;5.00;;;;;;;;5031396;27;45410;-84
2021/08/04 06:10:23;;;;;;;;;7.75;5.50;;;;;;;;5020885;27;46510;-85
2021/08/04 06:12:48;;;;;;;;;9.00;4.00;;;;;;;;5013777;27;45311;-86
2021/08/04 06:15:13;;;;;;;;;9.33;5.00;;;;;;;;5009843;27;45433;-84
2021/08/04 06:17:39;;;;;;;;;5.00;5.00;;;;;;;;5018357;27;45541;-81
2021/08/04 06:20:04;;;;;;;;;6.00;6.00;;;;;;;;5028463;27;45536;-84
2021/08/04 06:22:30;;;;;;;;;5.50;5.50;;;;;;;;5030761;28;45639;-80
2021/08/04 06:24:55;;;;;;;;;9.33;4.00;;;;;;;;5030560;28;45472;-84
2021/08/04 06:27:20;;;;;;;;;7.00;7.00;;;;;;;;5047137;28;45928;-79
2021/08/04 06:29:46;;;;;;;;;5.00;5.00;;;;;;;;5012551;27;48008;-84
2021/08/04 06:32:11;;;;;;;;;5.00;5.00;;;;;;;;5021453;27;45583;-81
2021/08/04 06:34:36;;;;;;;;;5.00;4.33;;;;;;;;5031503;28;45489;-82
2021/08/04 06:37:01;;;;;;;;;6.00;6.00;;;;;;;;5034248;27;45430;-85
2021/08/04 06:39:26;;;;;;;;;6.00;6.00;;;;;;;;5030088;27;45498;-85
2021/08/04 06:41:52;;;;;;;;;5.00;5.00;;;;;;;;5015600;27;45357;-87
2021/08/04 06:44:17;;;;;;;;;5.67;3.67;;;;;;;;5038034;27;45339;-86
2021/08/04 06:46:42;;;;;;;;;5.67;4.33;;;;;;;;5034626;28;45343;-88
2021/08/04 06:49:07;;;;;;;;;6.33;5.00;;;;;;;;5035418;27;46691;-86
2021/08/04 06:51:33;;;;;;;;;4.25;3.75;;;;;;;;5044646;28;49244;-84
2021/08/04 06:53:58;;;;;;;;;5.50;5.00;;;;;;;;5036013;27;45620;-87
2021/08/04 06:56:24;;;;;;;;;6.00;4.75;;;;;;;;5037986;27;45501;-86
2021/08/04 06:58:49;;;;;;;;;5.00;5.00;;;;;;;;5035509;28;45455;-84
2021/08/04 07:01:15;;;;;;;;;8.25;5.00;;;;;;;;5035647;27;45479;-88
2021/08/04 07:03:40;;;;;;;;;5.00;5.00;;;;;;;;5025001;27;46204;-82
2021/08/04 07:06:06;;;;;;;;;6.00;3.00;;;;;;;;5022799;27;45506;-84
2021/08/04 07:08:31;;;;;;;;;7.00;5.25;;;;;;;;5012130;27;46079;-84
2021/08/04 07:10:56;;;;;;;;;7.00;6.75;;;;;;;;5029365;28;46019;-84
2021/08/04 07:13:22;;;;;;;;;6.33;4.00;;;;;;;;5033644;27;45644;-83
2021/08/04 07:15:47;;;;;;;;;4.50;4.50;;;;;;;;5030386;27;45864;-83
2021/08/04 07:18:12;;;;;;;;;7.50;5.75;;;;;;;;5036732;27;45757;-83
2021/08/04 07:20:38;;;;;;;;;6.75;5.00;;;;;;;;5036881;27;45345;-84
2021/08/04 07:23:03;;;;;;;;;9.25;7.00;;;;;;;;5028589;28;45718;-82
2021/08/04 07:25:29;;;;;;;;;7.00;6.50;;;;;;;;5034104;28;48716;-83
2021/08/04 07:27:54;;;;;;;;;5.67;5.67;;;;;;;;5029008;27;45400;-82
2021/08/04 07:30:19;;;;;;;;;5.67;5.67;;;;;;;;5037339;27;45377;-81
2021/08/04 07:32:44;;;;;;;;;5.25;4.25;;;;;;;;5046641;28;45361;-83
2021/08/04 07:35:10;;;;;;;;;4.33;4.00;;;;;;;;5033416;27;45574;-84
2021/08/04 07:37:35;;;;;;;;;8.00;6.00;;;;;;;;5034158;28;45439;-84
2021/08/04 07:40:00;;;;;;;;;6.75;6.00;;;;;;;;5030535;27;45808;-83
2021/08/04 07:42:26;;;;;;;;;9.50;5.75;;;;;;;;5015744;27;45727;-82
2021/08/04 07:44:52;;;;;;;;;6.00;6.00;;;;;;;;5034099;27;45487;-83
2021/08/04 07:47:17;;;;;;;;;7.00;5.75;;;;;;;;5035816;27;46331;-83
2021/08/04 07:49:42;;;;;;;;;7.00;5.25;;;;;;;;5049938;28;45430;-82
2021/08/04 07:52:08;;;;;;;;;6.00;5.00;;;;;;;;5019038;27;45769;-82
2021/08/04 07:54:34;;;;;;;;;6.00;5.25;;;;;;;;5033148;27;45491;-85
2021/08/04 07:56:59;;;;;;;;;7.00;5.00;;;;;;;;5033927;27;45484;-83
2021/08/04 07:59:24;;;;;;;;;5.00;5.00;;;;;;;;5022158;27;45383;-82
2021/08/04 08:01:50;;;;;;;;;8.00;5.67;;;;;;;;5035501;28;45580;-84
2021/08/04 08:04:15;;;;;;;;;5.00;5.00;;;;;;;;5033083;27;45381;-84
2021/08/04 08:06:40;;;;;;;;;4.33;4.33;;;;;;;;5013080;27;47283;-83
2021/08/04 08:09:06;;;;;;;;;6.50;6.00;;;;;;;;5010172;27;46017;-83
2021/08/04 08:11:31;;;;;;;;;6.75;4.75;;;;;;;;5028542;27;45400;-83
2021/08/04 08:13:56;;;;;;;;;6.67;6.67;;;;;;;;5048977;28;45814;-85
2021/08/04 08:16:21;;;;;;;;;6.67;6.67;;;;;;;;5033139;27;45342;-80
2021/08/04 08:18:46;;;;;;;;;6.33;4.33;;;;;;;;5031014;27;45733;-84
2021/08/04 08:21:12;;;;;;;;;4.50;3.50;;;;;;;;5016060;27;45358;-84
2021/08/04 08:23:37;;;;;;;;;5.25;5.25;;;;;;;;5034882;28;48613;-87
2021/08/04 08:26:03;;;;;;;;;6.00;4.00;;;;;;;;5033276;28;45283;-83
2021/08/04 08:28:29;;;;;;;;;7.50;5.00;;;;;;;;5048617;28;45682;-82
2021/08/04 08:30:54;;;;;;;;;5.33;5.33;;;;;;;;5029425;27;45248;-84
2021/08/04 08:33:19;;;;;;;;;5.50;5.50;;;;;;;;5036880;27;45371;-85
2021/08/04 08:35:44;;;;;;;;;4.00;4.00;;;;;;;;5031120;27;45386;-84
2021/08/04 08:38:10;;;;;;;;;4.33;4.33;;;;;;;;5028360;27;45433;-85
2021/08/04 08:40:35;;;;;;;;;5.33;4.00;;;;;;;;4997663;28;45522;-84
2021/08/04 08:43:00;;;;;;;;;5.00;5.00;;;;;;;;5029583;27;46555;-85
2021/08/04 08:45:25;;;;;;;;;5.25;4.00;;;;;;;;5035810;27;45664;-85
2021/08/04 08:47:51;;;;;;;;;4.00;4.00;;;;;;;;5016506;27;45873;-85
2021/08/04 08:50:19;;;;;;;;;6.00;4.50;;;;;;;;5034277;27;45623;-84
2021/08/04 08:52:47;;;;;;;;;5.50;4.25;;;;;;;;5048662;27;45423;-85
2021/08/04 08:55:12;;;;;;;;;5.75;4.25;;;;;;;;5040277;27;47787;-86
2021/08/04 08:57:37;;;;;;;;;5.00;4.25;;;;;;;;5043720;28;45643;-85
2021/08/04 09:00:03;;;;;;;;;6.50;4.25;;;;;;;;5033881;27;45415;-85
2021/08/04 09:02:28;;;;;;;;;4.00;4.00;;;;;;;;5047826;28;45733;-85
2021/08/04 09:05:01;;;;;;;;;4.33;4.33;;;;;;;;5023015;28;45795;-86
2021/08/04 09:07:34;;;;;;;;;5.25;3.00;;;;;;;;5031366;27;45462;-84
2021/08/04 09:10:00;;;;;;;;;4.50;4.50;;;;;;;;5022609;27;45615;-86
2021/08/04 09:12:26;;;;;;;;;3.00;3.00;;;;;;;;5035311;27;47631;-85
2021/08/04 09:14:51;;;;;;;;;5.75;3.00;;;;;;;;5015018;27;47333;-84
2021/08/04 09:17:17;;;;;;;;;4.00;4.00;;;;;;;;5033500;27;45568;-84
2021/08/04 09:19:50;;;;;;;;;4.75;4.00;;;;;;;;5032687;28;45509;-84
2021/08/04 09:22:20;;;;;;;;;4.50;4.50;;;;;;;;5033074;27;45430;-84
2021/08/04 09:25:13;;;;;;;;;6.00;4.25;;;;;;;;5028918;28;46316;-85
2021/08/04 09:27:39;;;;;;;;;4.75;3.50;;;;;;;;5032170;27;45386;-83
2021/08/04 09:30:05;;;;;;;;;5.50;4.25;;;;;;;;5034431;27;45528;-84
2021/08/04 09:32:31;;;;;;;;;5.50;4.75;;;;;;;;5037644;27;45572;-83
2021/08/04 09:34:57;;;;;;;;;3.50;3.50;;;;;;;;5024674;28;48259;-84
2021/08/04 09:37:22;;;;;;;;;3.00;3.00;;;;;;;;5032678;27;45881;-84
2021/08/04 09:39:54;;;;;;;;;5.00;5.00;;;;;;;;5011107;27;45316;-84
2021/08/04 09:42:20;;;;;;;;;5.25;3.50;;;;;;;;5033323;27;45305;-84
2021/08/04 09:44:55;;;;;;;;;4.50;4.00;;;;;;;;5047596;28;47545;-82
2021/08/04 09:47:20;;;;;;;;;5.00;4.25;;;;;;;;5031169;27;45648;-85
2021/08/04 09:49:55;;;;;;;;;5.50;4.25;;;;;;;;5032573;28;45341;-83
2021/08/04 09:52:21;;;;;;;;;4.50;4.00;;;;;;;;5033218;27;45419;-84
2021/08/04 09:54:46;;;;;;;;;5.00;4.00;;;;;;;;5029072;27;45645;-83
2021/08/04 09:57:11;;;;;;;;;4.75;4.75;;;;;;;;5037511;27;45342;-83
2021/08/04 09:59:37;;;;;;;;;6.00;4.33;;;;;;;;5030509;27;45611;-84
2021/08/04 10:02:04;;;;;;;;;3.50;3.50;;;;;;;;5047593;28;50355;-84
2021/08/04 10:04:30;;;;;;;;;3.75;3.00;;;;;;;;5021474;28;45797;-83
2021/08/04 10:07:04;;;;;;;;;6.25;5.75;;;;;;;;5018322;27;45601;-83
2021/08/04 10:09:29;;;;;;;;;5.50;4.25;;;;;;;;5094164;27;45600;-84
2021/08/04 10:11:54;;;;;;;;;5.67;5.67;;;;;;;;5032790;27;45455;-84
2021/08/04 10:14:21;;;;;;;;;5.25;4.00;;;;;;;;5046683;27;48451;-84
2021/08/04 10:16:47;;;;;;;;;3.25;3.00;;;;;;;;5028360;28;45602;-85
2021/08/04 10:19:12;;;;;;;;;9.25;4.00;;;;;;;;5014276;27;45469;-84
2021/08/04 10:21:40;;;;;;;;;4.00;4.00;;;;;;;;5012977;27;45462;-85
2021/08/04 10:24:06;;;;;;;;;5.50;4.00;;;;;;;;5035334;28;46039;-83
2021/08/04 10:26:33;;;;;;;;;7.50;4.00;;;;;;;;5032889;27;45733;-83
2021/08/04 10:28:59;;;;;;;;;5.50;4.25;;;;;;;;5032174;28;45523;-85
2021/08/04 10:31:25;;;;;;;;;5.50;4.50;;;;;;;;5033203;27;45697;-84
2021/08/04 10:33:50;;;;;;;;;6.75;5.00;;;;;;;;5028394;27;46434;-84
2021/08/04 10:36:19;;;;;;;;;7.00;5.25;;;;;;;;5034810;27;45504;-84
2021/08/04 10:38:46;;;;;;;;;5.75;4.25;;;;;;;;5031875;27;45462;-85
2021/08/04 10:41:11;;;;;;;;;4.00;4.00;;;;;;;;5038449;27;45457;-84
2021/08/04 10:43:38;;;;;;;;;6.00;5.00;;;;;;;;5048582;28;48307;-85
2021/08/04 10:46:22;;;;;;;;;6.00;6.00;;;;;;;;5043581;28;45711;-85
2021/08/04 10:48:49;;;;;;;;;4.00;4.00;;;;;;;;5029564;27;45436;-85
2021/08/04 10:51:18;;;;;;;;;2.75;2.75;;;;;;;;5035220;27;45538;-85
2021/08/04 10:54:16;;;;;;;;;7.00;5.25;;;;;;;;5031955;27;46487;-84
2021/08/04 10:56:42;;;;;;;;;5.00;5.00;;;;;;;;5067291;27;45903;-85
2021/08/04 10:59:13;;;;;;;;;4.33;3.00;;;;;;;;5068936;27;45532;-85
2021/08/04 11:01:39;;;;;;;;;6.00;4.25;;;;;;;;5064423;28;45349;-85
2021/08/04 11:04:05;;;;;;;;;8.00;6.00;;;;;;;;5068106;27;46795;-84
2021/08/04 11:06:31;;;;;;;;;6.75;4.50;;;;;;;;5069699;27;45332;-85
2021/08/04 11:09:28;;;;;;;;;3.00;3.00;;;;;;;;5059840;27;45455;-85
2021/08/04 11:11:57;;;;;;;;;5.25;4.00;;;;;;;;5008540;28;46760;-85
2021/08/04 11:14:34;;;;;;;;;4.25;4.25;;;;;;;;5007017;28;46584;-85
2021/08/04 11:17:00;;;;;;;;;4.00;4.00;;;;;;;;4991716;28;46237;-84
2021/08/04 11:19:30;;;;;;;;;5.50;3.75;;;;;;;;5007600;28;45557;-85
2021/08/04 11:22:13;;;;;;;;;4.25;4.25;;;;;;;;4988616;28;45730;-85
2021/08/04 11:24:52;;;;;;;;;5.25;4.50;;;;;;;;5006789;28;45761;-85
2021/08/04 11:27:18;;;;;;;;;4.00;4.00;;;;;;;;4985523;28;45863;-82
2021/08/04 11:29:44;;;;;;;;;9.33;5.00;;;;;;;;5008215;28;45383;-82
2021/08/04 11:32:16;;;;;;;;;4.00;3.50;;;;;;;;5025785;28;45841;-83
2021/08/04 11:34:41;;;;;;;;;5.50;4.25;;;;;;;;5045927;28;46636;-82
2021/08/04 11:37:06;;;;;;;;;4.00;4.00;;;;;;;;5047787;28;45361;-83
2021/08/04 11:39:32;;;;;;;;;7.33;5.00;;;;;;;;5043863;28;45418;-83
2021/08/04 11:41:57;;;;;;;;;4.00;4.00;;;;;;;;5031408;28;45349;-83
2021/08/04 11:44:26;;;;;;;;;4.00;4.00;;;;;;;;5052420;28;46423;-83
2021/08/04 11:47:05;;;;;;;;;5.00;5.00;;;;;;;;5021195;28;45424;-82
2021/08/04 11:49:32;;;;;;;;;5.50;4.00;;;;;;;;5022388;28;45634;-83
2021/08/04 11:52:00;;;;;;;;;4.00;4.00;;;;;;;;5012600;27;45548;-82
2021/08/04 11:54:26;;;;;;;;;6.00;6.00;;;;;;;;5043740;28;48282;-83
2021/08/04 11:56:52;;;;;;;;;5.00;5.00;;;;;;;;5023225;27;46057;-82
2021/08/04 11:59:17;;;;;;;;;7.00;4.00;;;;;;;;5041152;27;45498;-83
2021/08/04 12:01:53;;;;;;;;;4.00;4.00;;;;;;;;5027377;27;45555;-83
2021/08/04 12:04:18;;;;;;;;;6.00;6.00;;;;;;;;5028649;27;46131;-83
2021/08/04 12:06:54;;;;;;;;;4.33;4.33;;;;;;;;5040457;28;45822;-83
2021/08/04 12:09:23;;;;;;;;;4.00;4.00;;;;;;;;5028915;27;45486;-84
2021/08/04 12:11:49;;;;;;;;;5.25;4.00;;;;;;;;5042687;28;45480;-85
2021/08/04 12:14:17;;;;;;;;;4.00;4.00;;;;;;;;5017376;27;45623;-84
2021/08/04 12:16:43;;;;;;;;;5.00;4.00;;;;;;;;5053165;28;45514;-87
2021/08/04 12:19:09;;;;;;;;;6.00;5.00;;;;;;;;5053987;28;45376;-83
2021/08/04 12:21:35;;;;;;;;;4.75;4.75;;;;;;;;5029645;27;45349;-82
2021/08/04 12:24:01;;;;;;;;;4.00;4.00;;;;;;;;5026553;28;46701;-82
2021/08/04 12:26:26;;;;;;;;;4.00;4.00;;;;;;;;5026689;27;45456;-82
2021/08/04 12:28:51;;;;;;;;;6.50;6.00;;;;;;;;5014418;28;45410;-83
2021/08/04 12:31:16;;;;;;;;;3.33;3.33;;;;;;;;5010935;27;45394;-83
2021/08/04 12:33:56;;;;;;;;;4.00;3.67;;;;;;;;5018975;27;46059;-82
2021/08/04 12:36:24;;;;;;;;;4.25;3.50;;;;;;;;5024876;27;46042;-82
2021/08/04 12:38:53;;;;;;;;;5.00;3.25;;;;;;;;5026458;27;45449;-82
2021/08/04 12:41:20;;;;;;;;;6.75;4.00;;;;;;;;5019454;27;45496;-82
2021/08/04 12:43:45;;;;;;;;;6.00;5.00;;;;;;;;5028860;28;46139;-84
2021/08/04 12:46:11;;;;;;;;;3.50;3.00;;;;;;;;5008327;27;45423;-81
2021/08/04 12:48:43;;;;;;;;;4.00;3.00;;;;;;;;5026090;27;45442;-83
2021/08/04 12:51:20;;;;;;;;;2.50;2.50;;;;;;;;5026615;27;45409;-83
2021/08/04 12:53:59;;;;;;;;;4.50;3.00;;;;;;;;5026878;27;45792;-83
2021/08/04 12:56:29;;;;;;;;;4.50;4.50;;;;;;;;5022906;27;45414;-82
2021/08/04 12:59:03;;;;;;;;;4.25;4.25;;;;;;;;5028733;28;45514;-83
2021/08/04 13:01:33;;;;;;;;;4.00;4.00;;;;;;;;5043560;28;45611;-83
2021/08/04 13:04:14;;;;;;;;;5.00;5.00;;;;;;;;5019543;27;45668;-82
2021/08/04 13:06:54;;;;;;;;;5.00;4.00;;;;;;;;5023300;27;45806;-78
2021/08/04 13:09:24;;;;;;;;;3.75;3.75;;;;;;;;5027848;27;45797;-79
2021/08/04 13:11:50;;;;;;;;;3.75;3.75;;;;;;;;5027825;27;45513;-79
2021/08/04 13:14:16;;;;;;;;;3.00;3.00;;;;;;;;5010026;27;46738;-81
2021/08/04 13:16:42;;;;;;;;;5.00;4.00;;;;;;;;5020257;28;45392;-79
2021/08/04 13:19:37;;;;;;;;;1.00;1.00;;;;;;;;5025210;27;45523;-79
2021/08/04 13:22:03;;;;;;;;;4.50;4.50;;;;;;;;5063222;27;45400;-80
2021/08/04 13:24:34;;;;;;;;;6.25;5.00;;;;;;;;5055333;27;48376;-84
2021/08/04 13:27:00;;;;;;;;;6.25;5.50;;;;;;;;5070628;27;45433;-84
2021/08/04 13:29:29;;;;;;;;;4.25;4.25;;;;;;;;5063347;27;45681;-82
2021/08/04 13:31:54;;;;;;;;;4.00;4.00;;;;;;;;5068386;27;45972;-82
2021/08/04 13:34:19;;;;;;;;;5.00;4.00;;;;;;;;5068012;27;46130;-84
2021/08/04 13:36:44;;;;;;;;;6.33;3.67;;;;;;;;5068445;28;45481;-82
2021/08/04 13:39:11;;;;;;;;;4.00;4.00;;;;;;;;5064630;27;45778;-83
2021/08/04 13:41:36;;;;;;;;;3.25;3.00;;;;;;;;5065116;27;45490;-82
2021/08/04 13:44:01;;;;;;;;;3.75;3.25;;;;;;;;5065512;27;46045;-83
2021/08/04 13:46:26;;;;;;;;;5.50;4.00;;;;;;;;5065463;27;45479;-82
2021/08/04 13:48:52;;;;;;;;;4.00;4.00;;;;;;;;5068419;28;45543;-82
2021/08/04 13:51:17;;;;;;;;;3.67;3.67;;;;;;;;5061916;28;45407;-83
2021/08/04 13:53:42;;;;;;;;;4.00;4.00;;;;;;;;5067741;27;46037;-82
2021/08/04 13:56:07;;;;;;;;;4.75;3.25;;;;;;;;5056445;27;45536;-83
2021/08/04 13:58:32;;;;;;;;;4.33;4.33;;;;;;;;5043819;28;45667;-81
2021/08/04 14:00:58;;;;;;;;;6.33;4.33;;;;;;;;5026004;27;45220;-82
2021/08/04 14:03:23;;;;;;;;;4.00;4.00;;;;;;;;5024309;27;45455;-82
2021/08/04 14:05:48;;;;;;;;;4.00;4.00;;;;;;;;5025092;27;45358;-83
2021/08/04 14:08:15;;;;;;;;;5.00;4.00;;;;;;;;5024054;28;45344;-86
2021/08/04 14:10:41;;;;;;;;;5.75;3.75;;;;;;;;5021801;28;45352;-82
2021/08/04 14:13:07;;;;;;;;;5.00;4.00;;;;;;;;5022559;27;46322;-82
2021/08/04 14:15:33;;;;;;;;;7.25;4.25;;;;;;;;5028739;27;45451;-82
2021/08/04 14:17:58;;;;;;;;;4.50;4.00;;;;;;;;5028688;27;46207;-83
2021/08/04 14:20:24;;;;;;;;;3.33;2.67;;;;;;;;5018952;27;45703;-83
2021/08/04 14:22:49;;;;;;;;;4.00;3.00;;;;;;;;5028855;28;45949;-82
2021/08/04 14:25:15;;;;;;;;;2.00;2.00;;;;;;;;5019353;27;45382;-84
2021/08/04 14:27:41;;;;;;;;;4.00;4.00;;;;;;;;5022813;27;45487;-82
2021/08/04 14:30:07;;;;;;;;;3.75;3.00;;;;;;;;5026991;27;45362;-82
2021/08/04 14:32:32;;;;;;;;;3.25;3.25;;;;;;;;5026767;28;45350;-83
2021/08/04 14:34:58;;;;;;;;;3.25;3.25;;;;;;;;5040726;28;46246;-83
2021/08/04 14:37:23;;;;;;;;;3.75;3.75;;;;;;;;5022471;27;45483;-80
2021/08/04 14:39:48;;;;;;;;;3.00;3.00;;;;;;;;5005942;27;45363;-82
2021/08/04 14:42:13;;;;;;;;;3.00;3.00;;;;;;;;5039911;27;45648;-83